createdAt,value
2019-03-24T00:09:27.064Z,32.50
2019-03-24T00:12:27.028Z,31.57
2019-03-24T00:15:35.984Z,35.17
2019-03-24T00:18:36.987Z,33.00
2019-03-24T00:21:38.231Z,31.67
2019-03-24T00:24:38.283Z,44.47
2019-03-24T00:27:47.185Z,35.03
2019-03-24T00:30:48.419Z,42.40
2019-03-24T00:33:49.707Z,33.27
2019-03-24T00:40:17.527Z,31.77
2019-03-24T00:43:18.003Z,35.80
2019-03-24T00:46:19.276Z,32.93
2019-03-24T00:49:18.801Z,33.97
2019-03-24T00:59:31.363Z,32.13
2019-03-24T01:02:40.162Z,30.80
2019-03-24T01:05:39.911Z,33.13
2019-03-24T01:12:15.031Z,32.80
2019-03-24T01:15:14.923Z,33.30
2019-03-24T01:21:28.899Z,35.73
2019-03-24T01:28:02.651Z,37.47
2019-03-24T01:31:02.500Z,40.70
2019-03-24T01:37:26.515Z,36.50
2019-03-24T01:49:52.321Z,37.60
2019-03-24T01:53:01.514Z,36.80
2019-03-24T01:56:01.611Z,36.57
2019-03-24T02:02:36.431Z,34.77
2019-03-24T02:05:37.532Z,32.53
2019-03-24T02:08:37.051Z,38.00
2019-03-24T02:17:58.646Z,37.23
2019-03-24T02:24:38.375Z,35.40
2019-03-24T02:31:33.389Z,35.33
2019-03-24T02:34:42.501Z,34.97
2019-03-24T02:37:42.618Z,34.40
2019-03-24T02:40:51.483Z,34.93
2019-03-24T02:46:52.495Z,36.00
2019-03-24T02:49:52.580Z,35.80
2019-03-24T02:53:01.618Z,33.13
2019-03-24T02:56:01.793Z,33.90
2019-03-24T02:59:10.845Z,35.60
2019-03-24T03:02:10.912Z,32.00
2019-03-24T03:08:40.235Z,34.33
2019-03-24T03:11:39.928Z,35.00
2019-03-24T03:18:12.573Z,33.07
2019-03-24T03:21:12.463Z,31.43
2019-03-24T03:24:21.511Z,33.13
2019-03-24T03:27:21.377Z,32.60
2019-03-24T03:30:30.391Z,35.40
2019-03-24T03:33:30.366Z,35.70
2019-03-24T03:36:39.404Z,36.10
2019-03-24T03:39:39.174Z,32.40
2019-03-24T03:49:10.603Z,35.40
2019-03-24T03:58:59.647Z,34.60
2019-03-24T04:02:00.538Z,32.97
2019-03-24T04:05:01.720Z,38.90
2019-03-24T04:08:02.873Z,34.37
2019-03-24T04:11:04.153Z,34.93
2019-03-24T04:14:05.471Z,34.47
2019-03-24T04:17:12.762Z,40.37
2019-03-24T04:20:14.557Z,32.43
2019-03-24T04:26:21.628Z,36.20
2019-03-24T04:29:30.928Z,39.00
2019-03-24T04:32:30.480Z,38.03
2019-03-24T04:35:39.324Z,39.13
2019-03-24T04:38:40.453Z,41.47
2019-03-24T04:41:41.246Z,39.70
2019-03-24T04:44:40.811Z,41.17
2019-03-24T04:50:56.027Z,35.13
2019-03-24T04:53:46.275Z,37.97
2019-03-24T04:56:46.135Z,36.07
2019-03-24T04:59:55.322Z,38.53
2019-03-24T05:02:55.506Z,42.17
2019-03-24T05:06:14.712Z,40.97
2019-03-24T05:12:10.101Z,41.73
2019-03-24T05:15:00.219Z,35.50
2019-03-24T05:21:30.052Z,38.77
2019-03-24T05:24:31.395Z,39.90
2019-03-24T05:27:31.155Z,40.30
2019-03-24T05:30:40.135Z,41.13
2019-03-24T05:33:41.139Z,39.03
2019-03-24T05:36:41.513Z,37.30
2019-03-24T05:39:41.199Z,35.40
2019-03-24T05:46:10.979Z,36.60
2019-03-24T05:52:17.397Z,35.33
2019-03-24T05:55:36.494Z,38.53
2019-03-24T05:58:45.338Z,37.97
2019-03-24T06:01:45.188Z,37.70
2019-03-24T06:07:59.099Z,38.13
2019-03-24T06:14:33.210Z,35.77
2019-03-24T06:17:32.511Z,31.23
2019-03-24T06:23:47.243Z,35.07
2019-03-24T06:26:56.351Z,33.30
2019-03-24T06:29:56.471Z,36.13
2019-03-24T06:33:05.491Z,31.00
2019-03-24T06:36:06.891Z,36.57
2019-03-24T06:39:07.141Z,33.47
2019-03-24T06:45:28.419Z,28.90
2019-03-24T06:48:23.699Z,29.50
2019-03-24T06:54:37.902Z,31.00
2019-03-24T06:57:46.911Z,31.90
2019-03-24T07:00:48.272Z,31.77
2019-03-24T07:03:49.847Z,30.07
2019-03-24T07:06:49.368Z,29.80
2019-03-24T07:13:04.261Z,32.43
2019-03-24T07:19:46.416Z,27.33
2019-03-24T07:26:15.299Z,29.67
2019-03-24T07:29:15.311Z,31.00
2019-03-24T07:32:16.222Z,31.47
2019-03-24T07:35:15.750Z,31.47
2019-03-24T07:38:24.723Z,30.37
2019-03-24T07:41:25.703Z,31.83
2019-03-24T07:44:26.915Z,29.93
2019-03-24T07:47:27.901Z,30.63
2019-03-24T07:50:28.123Z,29.27
2019-03-24T07:57:02.999Z,30.53
2019-03-24T08:00:05.787Z,30.33
2019-03-24T08:06:21.672Z,27.63
2019-03-24T08:09:22.967Z,28.77
2019-03-24T08:12:23.289Z,28.20
2019-03-24T08:15:23.243Z,29.20
2019-03-24T08:18:32.399Z,33.13
2019-03-24T08:21:22.293Z,28.63
2019-03-24T08:31:12.161Z,28.63
2019-03-24T08:34:13.295Z,29.53
2019-03-24T08:37:03.516Z,26.83
2019-03-24T08:40:12.554Z,27.00
2019-03-24T08:43:21.493Z,27.77
2019-03-24T08:46:21.379Z,28.50
2019-03-24T08:49:11.328Z,27.77
2019-03-24T08:52:11.436Z,28.27
2019-03-24T08:58:44.572Z,25.43
2019-03-24T09:01:45.863Z,25.57
2019-03-24T09:04:47.088Z,27.77
2019-03-24T09:07:48.326Z,26.90
2019-03-24T09:10:48.312Z,28.63
2019-03-24T09:13:57.451Z,26.80
2019-03-24T09:20:15.855Z,26.97
2019-03-24T09:23:23.877Z,26.87
2019-03-24T09:33:08.284Z,27.00
2019-03-24T09:35:59.496Z,29.80
2019-03-24T09:38:49.598Z,26.07
2019-03-24T09:45:13.210Z,28.13
2019-03-24T09:48:13.239Z,26.50
2019-03-24T09:51:22.352Z,33.10
2019-03-24T09:54:23.599Z,29.70
2019-03-24T10:00:29.860Z,25.70
2019-03-24T10:03:39.103Z,63.73
2019-03-24T10:06:38.839Z,30.07
2019-03-24T10:12:55.060Z,27.40
2019-03-24T10:19:28.589Z,28.03
2019-03-24T10:22:29.820Z,28.07
2019-03-24T10:25:20.185Z,27.17
2019-03-24T10:31:54.084Z,28.17
2019-03-24T10:34:56.487Z,27.80
2019-03-24T10:37:56.259Z,29.53
2019-03-24T10:41:04.498Z,28.67
2019-03-24T10:44:04.655Z,28.50
2019-03-24T10:47:13.900Z,29.77
2019-03-24T10:50:14.517Z,27.17
2019-03-24T10:53:23.707Z,26.37
2019-03-24T10:56:23.858Z,27.60
2019-03-24T11:02:37.776Z,27.50
2019-03-24T11:09:08.243Z,29.23
2019-03-24T11:12:08.434Z,28.37
2019-03-24T11:15:17.435Z,28.67
2019-03-24T11:18:07.664Z,29.10
2019-03-24T11:20:57.859Z,29.87
2019-03-24T11:23:58.106Z,28.50
2019-03-24T11:33:25.811Z,30.03
2019-03-24T11:36:27.067Z,27.33
2019-03-24T11:39:27.571Z,28.27
2019-03-24T11:46:10.461Z,26.17
2019-03-24T11:49:19.552Z,72.27
2019-03-24T11:52:28.803Z,169.87
2019-03-24T11:55:28.919Z,365.20
2019-03-24T12:04:50.332Z,223.53
2019-03-24T12:18:00.834Z,48.17
2019-03-24T12:21:00.941Z,39.40
2019-03-24T12:27:35.199Z,31.10
2019-03-24T12:30:36.195Z,29.77
2019-03-24T12:36:43.458Z,28.60
2019-03-24T12:39:44.001Z,28.97
2019-03-24T12:42:45.077Z,38.17
2019-03-24T12:45:44.689Z,80.93
2019-03-24T12:52:05.831Z,29.43
2019-03-24T12:55:07.046Z,32.10
2019-03-24T12:58:07.306Z,29.40
2019-03-24T13:01:16.340Z,27.93
2019-03-24T13:07:44.275Z,29.83
2019-03-24T13:10:45.384Z,27.00
2019-03-24T13:13:46.901Z,30.03
2019-03-24T13:16:47.504Z,28.30
2019-03-24T13:19:37.775Z,27.37
2019-03-24T13:32:50.699Z,27.97
2019-03-24T13:39:10.403Z,29.60
2019-03-24T13:45:44.093Z,26.70
2019-03-24T13:48:43.639Z,29.73
2019-03-24T13:55:24.451Z,29.67
2019-03-24T13:58:24.235Z,29.00
2019-03-24T14:11:05.520Z,27.50
2019-03-24T14:14:06.863Z,28.53
2019-03-24T14:17:06.988Z,29.37
2019-03-24T14:26:30.929Z,29.57
2019-03-24T14:29:31.989Z,30.20
2019-03-24T14:32:33.407Z,27.47
2019-03-24T14:35:23.976Z,30.17
2019-03-24T14:42:02.025Z,29.40
2019-03-24T14:44:52.208Z,30.00
2019-03-24T14:47:55.967Z,30.67
2019-03-24T14:50:54.426Z,29.73
2019-03-24T14:53:49.143Z,31.00
2019-03-24T14:56:52.128Z,29.83
2019-03-24T14:59:52.383Z,33.63
2019-03-24T15:06:26.927Z,29.03
2019-03-24T15:12:42.619Z,31.27
2019-03-24T15:15:43.903Z,30.10
2019-03-24T15:18:46.290Z,27.90
2019-03-24T15:21:48.425Z,29.07
2019-03-24T15:24:50.242Z,31.30
2019-03-24T15:27:51.741Z,29.17
2019-03-24T15:31:02.422Z,31.03
2019-03-24T15:34:18.957Z,30.13
2019-03-24T15:37:33.596Z,29.30
2019-03-24T15:43:43.685Z,26.50
2019-03-24T15:46:43.937Z,27.93
2019-03-24T15:53:13.597Z,25.97
2019-03-24T15:56:13.935Z,27.00
2019-03-24T16:02:30.364Z,26.63
2019-03-24T16:05:46.392Z,28.67
2019-03-24T16:08:47.702Z,26.90
2019-03-24T16:20:40.060Z,26.97
2019-03-24T16:23:41.308Z,29.40
2019-03-24T16:26:42.548Z,29.67
2019-03-24T16:29:43.626Z,28.50
2019-03-24T16:32:44.751Z,25.00
2019-03-24T16:35:44.779Z,26.90
2019-03-24T16:39:03.405Z,25.40
2019-03-24T16:41:58.842Z,24.90
2019-03-24T16:45:04.804Z,26.70
2019-03-24T16:51:12.279Z,25.00
2019-03-24T16:54:21.378Z,25.87
2019-03-24T16:57:21.247Z,25.20
2019-03-24T17:03:44.860Z,27.50
2019-03-24T17:06:44.367Z,25.57
2019-03-24T17:13:19.035Z,24.80
2019-03-24T17:16:20.075Z,25.60
2019-03-24T17:22:17.550Z,26.87
2019-03-24T17:28:35.096Z,25.80
2019-03-24T17:31:25.130Z,22.67
2019-03-24T17:34:34.164Z,25.57
2019-03-24T17:37:35.479Z,24.80
2019-03-24T17:40:39.048Z,24.33
2019-03-24T17:43:38.803Z,26.23
2019-03-24T17:46:40.083Z,25.33
2019-03-24T17:49:47.449Z,26.20
2019-03-24T17:52:48.691Z,27.17
2019-03-24T17:55:50.402Z,25.17
2019-03-24T17:58:50.716Z,24.80
2019-03-24T18:01:59.771Z,25.63
2019-03-24T18:11:09.044Z,24.80
2019-03-24T18:14:09.354Z,25.77
2019-03-24T18:17:18.408Z,26.13
2019-03-24T18:30:18.971Z,27.70
2019-03-24T18:33:09.166Z,25.30
2019-03-24T18:36:10.294Z,24.83
2019-03-24T18:39:10.914Z,27.50
2019-03-24T18:45:28.105Z,25.30
2019-03-24T18:48:27.727Z,27.40
2019-03-24T18:55:10.714Z,24.30
2019-03-24T18:58:12.123Z,24.70
2019-03-24T19:04:02.527Z,22.70
2019-03-24T19:07:03.892Z,22.73
2019-03-24T19:10:06.107Z,21.80
2019-03-24T19:13:08.941Z,21.43
2019-03-24T19:16:10.664Z,22.27
2019-03-24T19:28:39.544Z,22.77
2019-03-24T19:31:59.871Z,19.63
2019-03-24T19:35:00.380Z,22.10
2019-03-24T19:38:01.697Z,19.00
2019-03-24T19:41:03.163Z,20.87
2019-03-24T19:44:04.638Z,20.17
2019-03-24T19:47:06.559Z,21.43
2019-03-24T19:49:56.706Z,20.97
2019-03-24T19:59:46.723Z,20.50
2019-03-24T20:02:48.048Z,19.53
2019-03-24T20:05:48.154Z,20.30
2019-03-24T20:08:57.164Z,21.53
2019-03-24T20:11:57.564Z,20.03
2019-03-24T20:18:33.507Z,20.77
2019-03-24T20:28:46.878Z,18.50
2019-03-24T20:31:36.771Z,20.00
2019-03-24T20:34:39.839Z,21.67
2019-03-24T20:41:16.579Z,19.63
2019-03-24T20:47:35.911Z,19.30
2019-03-24T20:53:43.697Z,21.43
2019-03-24T21:00:11.500Z,20.40
2019-03-24T21:03:11.677Z,19.07
2019-03-24T21:09:28.959Z,20.60
2019-03-24T21:15:43.416Z,17.50
2019-03-24T21:18:52.495Z,18.93
2019-03-24T21:21:53.799Z,20.80
2019-03-24T21:24:54.953Z,18.33
2019-03-24T21:31:01.911Z,21.17
2019-03-24T21:34:11.085Z,19.07
2019-03-24T21:37:12.904Z,19.10
2019-03-24T21:40:02.968Z,19.13
2019-03-24T21:43:02.997Z,21.70
2019-03-24T21:46:04.038Z,19.97
2019-03-24T21:49:04.078Z,19.07
2019-03-24T22:01:59.170Z,21.60
2019-03-24T22:05:00.461Z,17.10
2019-03-24T22:08:00.392Z,18.77
2019-03-24T22:11:09.508Z,19.10
2019-03-24T22:14:09.717Z,16.33
2019-03-24T22:27:33.176Z,17.43
2019-03-24T22:33:39.825Z,19.50
2019-03-24T22:36:48.779Z,16.73
2019-03-24T22:39:49.888Z,16.77
2019-03-24T22:42:55.607Z,18.27
2019-03-24T22:45:55.531Z,16.13
2019-03-24T22:48:56.381Z,16.60
2019-03-24T22:52:06.590Z,16.80
2019-03-24T22:58:32.118Z,16.67
2019-03-24T23:05:06.566Z,18.60
2019-03-24T23:08:07.573Z,17.23
2019-03-24T23:11:07.860Z,17.30
2019-03-24T23:20:41.877Z,17.10
2019-03-24T23:27:21.177Z,18.33
2019-03-24T23:30:30.265Z,16.17
2019-03-24T23:33:37.511Z,16.70
2019-03-24T23:36:37.931Z,17.77
2019-03-24T23:39:37.475Z,17.13
2019-03-24T23:42:38.587Z,15.90
2019-03-24T23:45:39.851Z,16.83
2019-03-24T23:48:39.988Z,14.90
2019-03-24T23:54:58.677Z,15.83
2019-03-24T23:57:59.786Z,16.13
